sensor_id;sensor_type;location;lat;lon;timestamp;P1;durP1;ratioP1;P2;durP2;ratioP2
22652;SDS011;11493;43.344;26.226;2023-03-17T00:01:54;3.92;;;3.50;;
22652;SDS011;11493;43.344;26.226;2023-03-17T00:04:22;12.80;;;4.60;;
22652;SDS011;11493;43.344;26.226;2023-03-17T00:06:52;4.47;;;3.58;;
22652;SDS011;11493;43.344;26.226;2023-03-17T00:09:23;5.68;;;3.78;;
22652;SDS011;11493;43.344;26.226;2023-03-17T00:11:50;4.90;;;3.65;;
22652;SDS011;11493;43.344;26.226;2023-03-17T00:14:17;5.97;;;3.63;;
22652;SDS011;11493;43.344;26.226;2023-03-17T00:16:49;3.70;;;3.08;;
22652;SDS011;11493;43.344;26.226;2023-03-17T00:19:28;5.68;;;2.92;;
22652;SDS011;11493;43.344;26.226;2023-03-17T00:21:58;4.25;;;3.85;;
22652;SDS011;11493;43.344;26.226;2023-03-17T00:24:26;4.15;;;3.75;;
22652;SDS011;11493;43.344;26.226;2023-03-17T00:26:54;6.32;;;3.92;;
22652;SDS011;11493;43.344;26.226;2023-03-17T00:29:22;5.25;;;3.15;;
22652;SDS011;11493;43.344;26.226;2023-03-17T00:31:50;3.97;;;3.58;;
22652;SDS011;11493;43.344;26.226;2023-03-17T00:34:20;6.88;;;3.22;;
22652;SDS011;11493;43.344;26.226;2023-03-17T00:36:49;6.75;;;4.13;;
22652;SDS011;11493;43.344;26.226;2023-03-17T00:39:21;7.20;;;4.03;;
22652;SDS011;11493;43.344;26.226;2023-03-17T00:41:59;5.05;;;3.88;;
22652;SDS011;11493;43.344;26.226;2023-03-17T00:44:57;4.93;;;3.70;;
22652;SDS011;11493;43.344;26.226;2023-03-17T00:50:22;3.78;;;3.10;;
22652;SDS011;11493;43.344;26.226;2023-03-17T00:52:55;5.70;;;3.80;;
22652;SDS011;11493;43.344;26.226;2023-03-17T00:55:44;3.20;;;2.90;;
22652;SDS011;11493;43.344;26.226;2023-03-17T00:58:12;6.95;;;3.08;;
22652;SDS011;11493;43.344;26.226;2023-03-17T01:00:54;4.35;;;3.28;;
22652;SDS011;11493;43.344;26.226;2023-03-17T01:03:22;2.90;;;2.55;;
22652;SDS011;11493;43.344;26.226;2023-03-17T01:05:49;3.78;;;2.75;;
22652;SDS011;11493;43.344;26.226;2023-03-17T01:08:19;3.17;;;2.42;;
22652;SDS011;11493;43.344;26.226;2023-03-17T01:10:48;4.97;;;2.60;;
22652;SDS011;11493;43.344;26.226;2023-03-17T01:13:17;3.13;;;2.53;;
22652;SDS011;11493;43.344;26.226;2023-03-17T01:15:45;3.17;;;2.50;;
22652;SDS011;11493;43.344;26.226;2023-03-17T01:18:14;3.67;;;2.80;;
22652;SDS011;11493;43.344;26.226;2023-03-17T01:20:43;3.50;;;2.35;;
22652;SDS011;11493;43.344;26.226;2023-03-17T01:23:10;4.82;;;2.40;;
22652;SDS011;11493;43.344;26.226;2023-03-17T01:25:39;4.50;;;2.88;;
22652;SDS011;11493;43.344;26.226;2023-03-17T01:28:09;3.35;;;2.53;;
22652;SDS011;11493;43.344;26.226;2023-03-17T01:30:40;4.85;;;2.78;;
22652;SDS011;11493;43.344;26.226;2023-03-17T01:33:09;5.20;;;2.78;;
22652;SDS011;11493;43.344;26.226;2023-03-17T01:35:39;2.53;;;1.80;;
22652;SDS011;11493;43.344;26.226;2023-03-17T01:38:07;3.05;;;2.40;;
22652;SDS011;11493;43.344;26.226;2023-03-17T01:40:35;4.22;;;2.40;;
22652;SDS011;11493;43.344;26.226;2023-03-17T01:48:42;5.38;;;2.10;;
22652;SDS011;11493;43.344;26.226;2023-03-17T01:51:25;3.13;;;2.20;;
22652;SDS011;11493;43.344;26.226;2023-03-17T01:53:58;3.70;;;2.47;;
22652;SDS011;11493;43.344;26.226;2023-03-17T01:56:29;3.70;;;2.00;;
22652;SDS011;11493;43.344;26.226;2023-03-17T01:58:58;3.85;;;1.92;;
22652;SDS011;11493;43.344;26.226;2023-03-17T02:01:30;3.80;;;2.10;;
22652;SDS011;11493;43.344;26.226;2023-03-17T02:04:04;3.08;;;1.92;;
22652;SDS011;11493;43.344;26.226;2023-03-17T02:06:33;3.78;;;1.70;;
22652;SDS011;11493;43.344;26.226;2023-03-17T02:09:05;3.28;;;1.90;;
22652;SDS011;11493;43.344;26.226;2023-03-17T02:11:34;2.63;;;1.88;;
22652;SDS011;11493;43.344;26.226;2023-03-17T02:14:01;3.03;;;2.15;;
22652;SDS011;11493;43.344;26.226;2023-03-17T02:16:28;2.67;;;1.90;;
22652;SDS011;11493;43.344;26.226;2023-03-17T02:18:55;3.10;;;2.00;;
22652;SDS011;11493;43.344;26.226;2023-03-17T02:24:08;3.47;;;1.70;;
22652;SDS011;11493;43.344;26.226;2023-03-17T02:26:43;4.60;;;2.10;;
22652;SDS011;11493;43.344;26.226;2023-03-17T02:29:12;5.22;;;2.35;;
22652;SDS011;11493;43.344;26.226;2023-03-17T02:31:39;3.20;;;2.35;;
22652;SDS011;11493;43.344;26.226;2023-03-17T02:34:07;2.00;;;1.58;;
22652;SDS011;11493;43.344;26.226;2023-03-17T02:36:34;3.60;;;1.80;;
22652;SDS011;11493;43.344;26.226;2023-03-17T02:39:02;3.10;;;2.38;;
22652;SDS011;11493;43.344;26.226;2023-03-17T02:41:30;2.53;;;1.70;;
22652;SDS011;11493;43.344;26.226;2023-03-17T02:43:57;3.67;;;2.42;;
22652;SDS011;11493;43.344;26.226;2023-03-17T02:46:24;2.70;;;1.88;;
22652;SDS011;11493;43.344;26.226;2023-03-17T02:48:52;4.03;;;2.00;;
22652;SDS011;11493;43.344;26.226;2023-03-17T02:51:20;4.10;;;1.80;;
22652;SDS011;11493;43.344;26.226;2023-03-17T02:53:47;4.60;;;1.98;;
22652;SDS011;11493;43.344;26.226;2023-03-17T02:56:14;2.63;;;2.00;;
22652;SDS011;11493;43.344;26.226;2023-03-17T02:58:42;4.68;;;1.58;;
22652;SDS011;11493;43.344;26.226;2023-03-17T03:01:09;3.60;;;1.63;;
22652;SDS011;11493;43.344;26.226;2023-03-17T03:03:36;3.58;;;1.80;;
22652;SDS011;11493;43.344;26.226;2023-03-17T03:06:04;3.60;;;1.83;;
22652;SDS011;11493;43.344;26.226;2023-03-17T03:08:31;4.22;;;1.85;;
22652;SDS011;11493;43.344;26.226;2023-03-17T03:10:58;2.83;;;1.80;;
22652;SDS011;11493;43.344;26.226;2023-03-17T03:13:27;3.78;;;1.98;;
22652;SDS011;11493;43.344;26.226;2023-03-17T03:15:55;4.07;;;1.83;;
22652;SDS011;11493;43.344;26.226;2023-03-17T03:18:23;3.58;;;2.08;;
22652;SDS011;11493;43.344;26.226;2023-03-17T03:20:50;4.00;;;2.00;;
22652;SDS011;11493;43.344;26.226;2023-03-17T03:23:17;4.13;;;2.22;;
22652;SDS011;11493;43.344;26.226;2023-03-17T03:25:44;3.83;;;2.03;;
22652;SDS011;11493;43.344;26.226;2023-03-17T03:28:11;4.18;;;1.63;;
22652;SDS011;11493;43.344;26.226;2023-03-17T03:30:39;3.00;;;1.85;;
22652;SDS011;11493;43.344;26.226;2023-03-17T03:33:07;4.43;;;2.22;;
22652;SDS011;11493;43.344;26.226;2023-03-17T03:35:38;4.85;;;2.63;;
22652;SDS011;11493;43.344;26.226;2023-03-17T03:38:06;4.00;;;2.13;;
22652;SDS011;11493;43.344;26.226;2023-03-17T03:40:34;3.97;;;1.70;;
22652;SDS011;11493;43.344;26.226;2023-03-17T03:43:02;4.53;;;2.15;;
22652;SDS011;11493;43.344;26.226;2023-03-17T03:45:47;3.67;;;2.08;;
22652;SDS011;11493;43.344;26.226;2023-03-17T03:48:14;3.88;;;2.38;;
22652;SDS011;11493;43.344;26.226;2023-03-17T03:50:41;2.75;;;1.85;;
22652;SDS011;11493;43.344;26.226;2023-03-17T03:53:08;3.53;;;1.92;;
22652;SDS011;11493;43.344;26.226;2023-03-17T03:55:35;4.05;;;2.25;;
22652;SDS011;11493;43.344;26.226;2023-03-17T03:58:02;4.30;;;2.30;;
22652;SDS011;11493;43.344;26.226;2023-03-17T04:00:29;6.00;;;2.38;;
22652;SDS011;11493;43.344;26.226;2023-03-17T04:02:58;4.53;;;2.75;;
22652;SDS011;11493;43.344;26.226;2023-03-17T04:05:26;5.32;;;3.70;;
22652;SDS011;11493;43.344;26.226;2023-03-17T04:07:53;4.45;;;2.78;;
22652;SDS011;11493;43.344;26.226;2023-03-17T04:10:19;4.00;;;3.08;;
22652;SDS011;11493;43.344;26.226;2023-03-17T04:12:46;5.97;;;3.00;;
22652;SDS011;11493;43.344;26.226;2023-03-17T04:15:14;5.28;;;2.85;;
22652;SDS011;11493;43.344;26.226;2023-03-17T04:17:42;4.50;;;2.63;;
22652;SDS011;11493;43.344;26.226;2023-03-17T04:20:10;3.60;;;2.53;;
22652;SDS011;11493;43.344;26.226;2023-03-17T04:22:39;3.95;;;3.33;;
22652;SDS011;11493;43.344;26.226;2023-03-17T04:25:10;5.30;;;3.38;;
22652;SDS011;11493;43.344;26.226;2023-03-17T04:27:40;7.53;;;5.43;;
22652;SDS011;11493;43.344;26.226;2023-03-17T04:30:09;11.60;;;8.00;;
22652;SDS011;11493;43.344;26.226;2023-03-17T04:35:08;7.18;;;5.35;;
22652;SDS011;11493;43.344;26.226;2023-03-17T04:37:43;9.75;;;4.72;;
22652;SDS011;11493;43.344;26.226;2023-03-17T04:40:11;6.60;;;4.32;;
22652;SDS011;11493;43.344;26.226;2023-03-17T04:42:39;6.18;;;5.18;;
22652;SDS011;11493;43.344;26.226;2023-03-17T04:45:11;6.03;;;4.68;;
22652;SDS011;11493;43.344;26.226;2023-03-17T04:47:41;5.35;;;4.35;;
22652;SDS011;11493;43.344;26.226;2023-03-17T04:50:08;8.23;;;4.88;;
22652;SDS011;11493;43.344;26.226;2023-03-17T04:52:37;9.30;;;4.80;;
22652;SDS011;11493;43.344;26.226;2023-03-17T04:55:05;6.38;;;5.25;;
22652;SDS011;11493;43.344;26.226;2023-03-17T04:57:37;7.78;;;6.25;;
22652;SDS011;11493;43.344;26.226;2023-03-17T05:00:04;13.05;;;6.30;;
22652;SDS011;11493;43.344;26.226;2023-03-17T05:02:32;9.63;;;7.35;;
22652;SDS011;11493;43.344;26.226;2023-03-17T05:04:59;12.32;;;7.93;;
22652;SDS011;11493;43.344;26.226;2023-03-17T05:07:27;18.73;;;9.18;;
22652;SDS011;11493;43.344;26.226;2023-03-17T05:09:54;20.50;;;10.45;;
22652;SDS011;11493;43.344;26.226;2023-03-17T05:12:22;24.25;;;12.30;;
22652;SDS011;11493;43.344;26.226;2023-03-17T05:14:49;22.17;;;12.00;;
22652;SDS011;11493;43.344;26.226;2023-03-17T05:17:16;31.08;;;14.77;;
22652;SDS011;11493;43.344;26.226;2023-03-17T05:19:43;25.10;;;13.32;;
22652;SDS011;11493;43.344;26.226;2023-03-17T05:22:11;17.35;;;11.90;;
22652;SDS011;11493;43.344;26.226;2023-03-17T05:24:38;16.33;;;10.07;;
22652;SDS011;11493;43.344;26.226;2023-03-17T05:27:05;14.93;;;9.40;;
22652;SDS011;11493;43.344;26.226;2023-03-17T05:29:32;13.25;;;9.88;;
22652;SDS011;11493;43.344;26.226;2023-03-17T05:31:59;15.25;;;9.95;;
22652;SDS011;11493;43.344;26.226;2023-03-17T05:34:26;13.05;;;9.48;;
22652;SDS011;11493;43.344;26.226;2023-03-17T05:36:53;16.45;;;9.40;;
22652;SDS011;11493;43.344;26.226;2023-03-17T05:39:20;17.00;;;11.50;;
22652;SDS011;11493;43.344;26.226;2023-03-17T05:41:47;13.70;;;9.52;;
22652;SDS011;11493;43.344;26.226;2023-03-17T05:44:15;18.25;;;11.07;;
22652;SDS011;11493;43.344;26.226;2023-03-17T05:46:41;15.50;;;9.93;;
22652;SDS011;11493;43.344;26.226;2023-03-17T05:49:08;29.90;;;15.90;;
22652;SDS011;11493;43.344;26.226;2023-03-17T05:51:35;20.13;;;12.25;;
22652;SDS011;11493;43.344;26.226;2023-03-17T05:54:03;18.42;;;11.80;;
22652;SDS011;11493;43.344;26.226;2023-03-17T05:56:30;22.05;;;11.68;;
22652;SDS011;11493;43.344;26.226;2023-03-17T05:58:59;22.77;;;12.13;;
22652;SDS011;11493;43.344;26.226;2023-03-17T06:01:27;20.92;;;13.18;;
22652;SDS011;11493;43.344;26.226;2023-03-17T06:03:55;16.50;;;11.23;;
22652;SDS011;11493;43.344;26.226;2023-03-17T06:06:22;17.55;;;10.73;;
22652;SDS011;11493;43.344;26.226;2023-03-17T06:08:50;19.63;;;12.40;;
22652;SDS011;11493;43.344;26.226;2023-03-17T06:11:17;18.65;;;12.30;;
22652;SDS011;11493;43.344;26.226;2023-03-17T06:13:47;23.57;;;12.77;;
22652;SDS011;11493;43.344;26.226;2023-03-17T06:16:14;18.85;;;12.80;;
22652;SDS011;11493;43.344;26.226;2023-03-17T06:18:42;16.65;;;12.23;;
22652;SDS011;11493;43.344;26.226;2023-03-17T06:21:10;18.80;;;12.07;;
22652;SDS011;11493;43.344;26.226;2023-03-17T06:23:38;13.88;;;10.68;;
22652;SDS011;11493;43.344;26.226;2023-03-17T06:26:05;16.70;;;11.80;;
22652;SDS011;11493;43.344;26.226;2023-03-17T06:28:32;18.70;;;12.18;;
22652;SDS011;11493;43.344;26.226;2023-03-17T06:30:59;16.50;;;10.38;;
22652;SDS011;11493;43.344;26.226;2023-03-17T06:33:27;14.70;;;9.95;;
22652;SDS011;11493;43.344;26.226;2023-03-17T06:35:54;14.00;;;9.38;;
22652;SDS011;11493;43.344;26.226;2023-03-17T06:38:21;17.83;;;9.07;;
22652;SDS011;11493;43.344;26.226;2023-03-17T06:40:49;13.35;;;9.40;;
22652;SDS011;11493;43.344;26.226;2023-03-17T06:43:16;12.68;;;9.73;;
22652;SDS011;11493;43.344;26.226;2023-03-17T06:45:45;14.25;;;10.40;;
22652;SDS011;11493;43.344;26.226;2023-03-17T06:48:12;13.63;;;9.85;;
22652;SDS011;11493;43.344;26.226;2023-03-17T06:50:39;11.18;;;9.35;;
22652;SDS011;11493;43.344;26.226;2023-03-17T06:53:06;15.13;;;10.02;;
22652;SDS011;11493;43.344;26.226;2023-03-17T06:55:33;16.00;;;9.13;;
22652;SDS011;11493;43.344;26.226;2023-03-17T06:58:01;13.07;;;8.15;;
22652;SDS011;11493;43.344;26.226;2023-03-17T07:00:28;14.38;;;8.85;;
22652;SDS011;11493;43.344;26.226;2023-03-17T07:02:56;10.55;;;8.45;;
22652;SDS011;11493;43.344;26.226;2023-03-17T07:05:23;11.55;;;8.65;;
22652;SDS011;11493;43.344;26.226;2023-03-17T07:07:50;11.35;;;8.43;;
22652;SDS011;11493;43.344;26.226;2023-03-17T07:10:17;11.13;;;7.60;;
22652;SDS011;11493;43.344;26.226;2023-03-17T07:12:44;11.60;;;7.47;;
22652;SDS011;11493;43.344;26.226;2023-03-17T07:15:13;8.18;;;7.05;;
22652;SDS011;11493;43.344;26.226;2023-03-17T07:17:41;13.07;;;7.25;;
22652;SDS011;11493;43.344;26.226;2023-03-17T07:20:08;8.73;;;6.20;;
22652;SDS011;11493;43.344;26.226;2023-03-17T07:22:37;7.53;;;6.25;;
22652;SDS011;11493;43.344;26.226;2023-03-17T07:25:04;13.30;;;6.22;;
22652;SDS011;11493;43.344;26.226;2023-03-17T07:27:32;8.07;;;6.32;;
22652;SDS011;11493;43.344;26.226;2023-03-17T07:29:59;11.25;;;8.18;;
22652;SDS011;11493;43.344;26.226;2023-03-17T07:32:30;7.97;;;7.07;;
22652;SDS011;11493;43.344;26.226;2023-03-17T07:34:58;6.22;;;5.53;;
22652;SDS011;11493;43.344;26.226;2023-03-17T07:37:25;13.10;;;5.53;;
22652;SDS011;11493;43.344;26.226;2023-03-17T07:39:52;5.90;;;4.22;;
22652;SDS011;11493;43.344;26.226;2023-03-17T07:42:19;4.65;;;4.22;;
22652;SDS011;11493;43.344;26.226;2023-03-17T07:44:47;4.57;;;4.13;;
22652;SDS011;11493;43.344;26.226;2023-03-17T07:47:14;9.50;;;4.55;;
22652;SDS011;11493;43.344;26.226;2023-03-17T07:49:42;4.70;;;3.25;;
22652;SDS011;11493;43.344;26.226;2023-03-17T07:52:09;4.10;;;3.15;;
22652;SDS011;11493;43.344;26.226;2023-03-17T07:54:37;6.07;;;3.33;;
22652;SDS011;11493;43.344;26.226;2023-03-17T07:57:08;3.42;;;2.65;;
22652;SDS011;11493;43.344;26.226;2023-03-17T07:59:35;3.75;;;3.22;;
22652;SDS011;11493;43.344;26.226;2023-03-17T08:02:02;4.70;;;2.72;;
22652;SDS011;11493;43.344;26.226;2023-03-17T08:04:29;3.38;;;2.72;;
22652;SDS011;11493;43.344;26.226;2023-03-17T08:06:56;10.32;;;3.47;;
22652;SDS011;11493;43.344;26.226;2023-03-17T08:09:24;7.88;;;4.28;;
22652;SDS011;11493;43.344;26.226;2023-03-17T08:11:51;10.50;;;4.78;;
22652;SDS011;11493;43.344;26.226;2023-03-17T08:14:18;6.32;;;3.42;;
22652;SDS011;11493;43.344;26.226;2023-03-17T08:16:45;3.05;;;2.35;;
22652;SDS011;11493;43.344;26.226;2023-03-17T08:19:13;6.82;;;2.10;;
22652;SDS011;11493;43.344;26.226;2023-03-17T08:21:40;3.70;;;2.17;;
22652;SDS011;11493;43.344;26.226;2023-03-17T08:24:07;2.67;;;2.13;;
22652;SDS011;11493;43.344;26.226;2023-03-17T08:26:35;5.15;;;1.88;;
22652;SDS011;11493;43.344;26.226;2023-03-17T08:29:03;3.35;;;1.90;;
22652;SDS011;11493;43.344;26.226;2023-03-17T08:31:30;2.70;;;1.92;;
22652;SDS011;11493;43.344;26.226;2023-03-17T08:33:59;4.93;;;1.70;;
22652;SDS011;11493;43.344;26.226;2023-03-17T08:36:28;4.85;;;2.10;;
22652;SDS011;11493;43.344;26.226;2023-03-17T08:38:56;3.85;;;1.98;;
22652;SDS011;11493;43.344;26.226;2023-03-17T08:41:23;6.40;;;1.90;;
22652;SDS011;11493;43.344;26.226;2023-03-17T08:43:53;5.60;;;2.10;;
22652;SDS011;11493;43.344;26.226;2023-03-17T08:48:53;4.80;;;1.98;;
22652;SDS011;11493;43.344;26.226;2023-03-17T08:51:22;3.70;;;2.25;;
22652;SDS011;11493;43.344;26.226;2023-03-17T08:53:52;7.97;;;1.90;;
22652;SDS011;11493;43.344;26.226;2023-03-17T08:56:20;5.72;;;2.17;;
22652;SDS011;11493;43.344;26.226;2023-03-17T08:58:48;4.40;;;2.00;;
22652;SDS011;11493;43.344;26.226;2023-03-17T09:01:16;4.07;;;1.38;;
22652;SDS011;11493;43.344;26.226;2023-03-17T09:03:43;3.78;;;2.00;;
22652;SDS011;11493;43.344;26.226;2023-03-17T09:06:11;5.90;;;2.35;;
22652;SDS011;11493;43.344;26.226;2023-03-17T09:08:39;5.60;;;1.83;;
22652;SDS011;11493;43.344;26.226;2023-03-17T09:11:12;8.50;;;3.40;;
22652;SDS011;11493;43.344;26.226;2023-03-17T09:13:42;4.55;;;2.17;;
22652;SDS011;11493;43.344;26.226;2023-03-17T09:16:12;5.43;;;2.55;;
22652;SDS011;11493;43.344;26.226;2023-03-17T09:18:40;4.65;;;2.17;;
22652;SDS011;11493;43.344;26.226;2023-03-17T09:21:07;3.78;;;1.67;;
22652;SDS011;11493;43.344;26.226;2023-03-17T09:23:37;3.85;;;1.58;;
22652;SDS011;11493;43.344;26.226;2023-03-17T09:26:04;2.67;;;1.48;;
22652;SDS011;11493;43.344;26.226;2023-03-17T09:28:31;9.50;;;2.22;;
22652;SDS011;11493;43.344;26.226;2023-03-17T09:31:00;6.85;;;2.05;;
22652;SDS011;11493;43.344;26.226;2023-03-17T09:33:28;3.00;;;1.33;;
22652;SDS011;11493;43.344;26.226;2023-03-17T09:35:56;4.85;;;1.40;;
22652;SDS011;11493;43.344;26.226;2023-03-17T09:38:24;3.40;;;1.20;;
22652;SDS011;11493;43.344;26.226;2023-03-17T09:49:12;2.97;;;1.50;;
22652;SDS011;11493;43.344;26.226;2023-03-17T09:51:53;3.85;;;1.55;;
22652;SDS011;11493;43.344;26.226;2023-03-17T09:54:26;4.25;;;1.42;;
22652;SDS011;11493;43.344;26.226;2023-03-17T09:59:45;3.67;;;1.63;;
22652;SDS011;11493;43.344;26.226;2023-03-17T10:02:29;3.30;;;1.05;;
22652;SDS011;11493;43.344;26.226;2023-03-17T10:04:58;7.95;;;1.30;;
22652;SDS011;11493;43.344;26.226;2023-03-17T10:07:37;12.48;;;1.65;;
22652;SDS011;11493;43.344;26.226;2023-03-17T10:10:26;5.60;;;1.10;;
22652;SDS011;11493;43.344;26.226;2023-03-17T10:18:28;8.50;;;1.38;;
22652;SDS011;11493;43.344;26.226;2023-03-17T10:21:08;2.00;;;1.08;;
22652;SDS011;11493;43.344;26.226;2023-03-17T10:23:39;4.55;;;1.25;;
22652;SDS011;11493;43.344;26.226;2023-03-17T10:26:07;3.88;;;1.48;;
22652;SDS011;11493;43.344;26.226;2023-03-17T10:28:49;4.03;;;1.50;;
22652;SDS011;11493;43.344;26.226;2023-03-17T10:31:18;4.00;;;1.92;;
22652;SDS011;11493;43.344;26.226;2023-03-17T10:33:54;5.32;;;1.50;;
22652;SDS011;11493;43.344;26.226;2023-03-17T10:36:32;5.20;;;1.00;;
22652;SDS011;11493;43.344;26.226;2023-03-17T10:39:13;1.75;;;0.95;;
22652;SDS011;11493;43.344;26.226;2023-03-17T10:41:51;6.90;;;1.80;;
22652;SDS011;11493;43.344;26.226;2023-03-17T10:44:39;4.28;;;2.17;;
22652;SDS011;11493;43.344;26.226;2023-03-17T10:47:23;6.70;;;1.73;;
22652;SDS011;11493;43.344;26.226;2023-03-17T10:52:33;4.70;;;1.98;;
22652;SDS011;11493;43.344;26.226;2023-03-17T10:55:05;3.10;;;1.80;;
22652;SDS011;11493;43.344;26.226;2023-03-17T10:57:34;5.95;;;1.80;;
22652;SDS011;11493;43.344;26.226;2023-03-17T11:00:15;2.63;;;1.73;;
22652;SDS011;11493;43.344;26.226;2023-03-17T11:02:55;2.50;;;1.20;;
22652;SDS011;11493;43.344;26.226;2023-03-17T11:05:26;3.92;;;1.55;;
22652;SDS011;11493;43.344;26.226;2023-03-17T11:08:37;4.22;;;1.67;;
22652;SDS011;11493;43.344;26.226;2023-03-17T11:10:44;4.05;;;1.92;;
22652;SDS011;11493;43.344;26.226;2023-03-17T11:13:15;2.95;;;1.05;;
22652;SDS011;11493;43.344;26.226;2023-03-17T11:15:47;2.35;;;1.20;;
22652;SDS011;11493;43.344;26.226;2023-03-17T11:18:18;3.78;;;1.30;;
22652;SDS011;11493;43.344;26.226;2023-03-17T11:21:00;5.43;;;2.00;;
22652;SDS011;11493;43.344;26.226;2023-03-17T11:28:47;3.45;;;1.73;;
22652;SDS011;11493;43.344;26.226;2023-03-17T11:31:32;8.15;;;4.25;;
22652;SDS011;11493;43.344;26.226;2023-03-17T11:34:10;8.57;;;3.20;;
22652;SDS011;11493;43.344;26.226;2023-03-17T11:56:18;7.18;;;4.10;;
22652;SDS011;11493;43.344;26.226;2023-03-17T11:58:49;8.10;;;2.78;;
22652;SDS011;11493;43.344;26.226;2023-03-17T12:01:40;6.93;;;3.13;;
22652;SDS011;11493;43.344;26.226;2023-03-17T12:04:37;9.20;;;3.85;;
22652;SDS011;11493;43.344;26.226;2023-03-17T12:07:20;6.90;;;3.88;;
22652;SDS011;11493;43.344;26.226;2023-03-17T12:10:02;9.13;;;5.18;;
22652;SDS011;11493;43.344;26.226;2023-03-17T12:12:43;6.30;;;3.88;;
22652;SDS011;11493;43.344;26.226;2023-03-17T12:15:18;5.32;;;3.45;;
22652;SDS011;11493;43.344;26.226;2023-03-17T12:18:01;14.57;;;9.82;;
22652;SDS011;11493;43.344;26.226;2023-03-17T12:20:55;10.88;;;5.70;;
22652;SDS011;11493;43.344;26.226;2023-03-17T12:23:44;14.07;;;6.78;;
22652;SDS011;11493;43.344;26.226;2023-03-17T12:26:17;8.30;;;5.57;;
22652;SDS011;11493;43.344;26.226;2023-03-17T12:28:51;11.45;;;6.07;;
22652;SDS011;11493;43.344;26.226;2023-03-17T12:31:25;10.45;;;5.78;;
22652;SDS011;11493;43.344;26.226;2023-03-17T12:36:49;7.60;;;3.53;;
22652;SDS011;11493;43.344;26.226;2023-03-17T12:39:18;5.13;;;4.00;;
22652;SDS011;11493;43.344;26.226;2023-03-17T12:44:51;9.50;;;5.53;;
22652;SDS011;11493;43.344;26.226;2023-03-17T12:48:03;14.73;;;5.80;;
22652;SDS011;11493;43.344;26.226;2023-03-17T12:53:57;21.35;;;9.27;;
22652;SDS011;11493;43.344;26.226;2023-03-17T12:56:32;10.10;;;7.07;;
22652;SDS011;11493;43.344;26.226;2023-03-17T12:59:05;14.05;;;7.43;;
22652;SDS011;11493;43.344;26.226;2023-03-17T13:01:39;11.27;;;6.28;;
22652;SDS011;11493;43.344;26.226;2023-03-17T13:04:23;26.75;;;8.55;;
22652;SDS011;11493;43.344;26.226;2023-03-17T13:07:04;24.45;;;11.65;;
22652;SDS011;11493;43.344;26.226;2023-03-17T13:12:00;11.00;;;8.13;;
22652;SDS011;11493;43.344;26.226;2023-03-17T13:14:40;12.73;;;7.75;;
22652;SDS011;11493;43.344;26.226;2023-03-17T13:19:55;10.82;;;6.72;;
22652;SDS011;11493;43.344;26.226;2023-03-17T13:22:41;11.73;;;5.72;;
22652;SDS011;11493;43.344;26.226;2023-03-17T13:27:40;7.07;;;5.75;;
22652;SDS011;11493;43.344;26.226;2023-03-17T13:32:55;5.00;;;4.15;;
22652;SDS011;11493;43.344;26.226;2023-03-17T13:35:26;7.85;;;4.50;;
22652;SDS011;11493;43.344;26.226;2023-03-17T13:39:11;9.05;;;5.00;;
22652;SDS011;11493;43.344;26.226;2023-03-17T13:50:10;11.60;;;6.20;;
22652;SDS011;11493;43.344;26.226;2023-03-17T13:55:29;9.80;;;5.75;;
22652;SDS011;11493;43.344;26.226;2023-03-17T14:00:40;9.40;;;6.70;;
22652;SDS011;11493;43.344;26.226;2023-03-17T14:03:15;6.60;;;5.90;;
22652;SDS011;11493;43.344;26.226;2023-03-17T14:05:46;12.27;;;5.80;;
22652;SDS011;11493;43.344;26.226;2023-03-17T14:08:16;18.50;;;9.13;;
22652;SDS011;11493;43.344;26.226;2023-03-17T14:10:54;9.90;;;6.78;;
22652;SDS011;11493;43.344;26.226;2023-03-17T14:13:24;12.63;;;6.35;;
22652;SDS011;11493;43.344;26.226;2023-03-17T14:16:13;7.22;;;5.47;;
22652;SDS011;11493;43.344;26.226;2023-03-17T14:18:53;5.43;;;4.82;;
22652;SDS011;11493;43.344;26.226;2023-03-17T14:21:29;15.20;;;7.75;;
22652;SDS011;11493;43.344;26.226;2023-03-17T14:23:59;6.55;;;5.55;;
22652;SDS011;11493;43.344;26.226;2023-03-17T14:26:28;11.13;;;7.10;;
22652;SDS011;11493;43.344;26.226;2023-03-17T14:28:57;13.02;;;7.60;;
22652;SDS011;11493;43.344;26.226;2023-03-17T14:31:27;16.65;;;8.50;;
22652;SDS011;11493;43.344;26.226;2023-03-17T14:33:56;16.58;;;7.15;;
22652;SDS011;11493;43.344;26.226;2023-03-17T14:36:26;18.52;;;10.18;;
22652;SDS011;11493;43.344;26.226;2023-03-17T14:38:57;9.65;;;6.93;;
22652;SDS011;11493;43.344;26.226;2023-03-17T14:41:25;19.35;;;10.60;;
22652;SDS011;11493;43.344;26.226;2023-03-17T14:43:57;18.52;;;11.40;;
22652;SDS011;11493;43.344;26.226;2023-03-17T14:46:30;12.63;;;6.85;;
22652;SDS011;11493;43.344;26.226;2023-03-17T14:49:16;7.20;;;5.15;;
22652;SDS011;11493;43.344;26.226;2023-03-17T14:51:48;10.68;;;6.95;;
22652;SDS011;11493;43.344;26.226;2023-03-17T14:54:20;13.27;;;6.72;;
22652;SDS011;11493;43.344;26.226;2023-03-17T14:56:58;9.75;;;6.50;;
22652;SDS011;11493;43.344;26.226;2023-03-17T14:59:38;18.17;;;10.43;;
22652;SDS011;11493;43.344;26.226;2023-03-17T15:04:51;10.85;;;7.13;;
22652;SDS011;11493;43.344;26.226;2023-03-17T15:07:27;9.30;;;7.35;;
22652;SDS011;11493;43.344;26.226;2023-03-17T15:09:58;18.27;;;11.05;;
22652;SDS011;11493;43.344;26.226;2023-03-17T15:12:30;11.68;;;7.10;;
22652;SDS011;11493;43.344;26.226;2023-03-17T15:14:59;15.00;;;11.32;;
22652;SDS011;11493;43.344;26.226;2023-03-17T15:17:32;23.05;;;11.65;;
22652;SDS011;11493;43.344;26.226;2023-03-17T15:20:04;17.23;;;9.75;;
22652;SDS011;11493;43.344;26.226;2023-03-17T15:22:43;23.58;;;10.98;;
22652;SDS011;11493;43.344;26.226;2023-03-17T15:25:24;22.42;;;11.80;;
22652;SDS011;11493;43.344;26.226;2023-03-17T15:28:15;22.45;;;13.63;;
22652;SDS011;11493;43.344;26.226;2023-03-17T15:33:51;14.32;;;8.68;;
22652;SDS011;11493;43.344;26.226;2023-03-17T15:36:21;19.23;;;11.00;;
22652;SDS011;11493;43.344;26.226;2023-03-17T15:38:59;15.13;;;10.75;;
22652;SDS011;11493;43.344;26.226;2023-03-17T15:41:27;14.65;;;10.98;;
22652;SDS011;11493;43.344;26.226;2023-03-17T15:43:54;16.13;;;11.02;;
22652;SDS011;11493;43.344;26.226;2023-03-17T15:46:23;23.75;;;16.42;;
22652;SDS011;11493;43.344;26.226;2023-03-17T15:48:53;23.65;;;15.73;;
22652;SDS011;11493;43.344;26.226;2023-03-17T15:51:20;25.08;;;16.90;;
22652;SDS011;11493;43.344;26.226;2023-03-17T15:53:47;25.05;;;15.45;;
22652;SDS011;11493;43.344;26.226;2023-03-17T15:56:18;23.50;;;15.40;;
22652;SDS011;11493;43.344;26.226;2023-03-17T15:58:50;24.38;;;17.52;;
22652;SDS011;11493;43.344;26.226;2023-03-17T16:01:18;31.45;;;16.48;;
22652;SDS011;11493;43.344;26.226;2023-03-17T16:03:46;20.63;;;12.40;;
22652;SDS011;11493;43.344;26.226;2023-03-17T16:06:18;16.50;;;11.60;;
22652;SDS011;11493;43.344;26.226;2023-03-17T16:08:48;17.60;;;11.50;;
22652;SDS011;11493;43.344;26.226;2023-03-17T16:11:19;24.27;;;15.32;;
22652;SDS011;11493;43.344;26.226;2023-03-17T16:13:54;30.20;;;17.13;;
22652;SDS011;11493;43.344;26.226;2023-03-17T16:18:58;25.20;;;15.88;;
22652;SDS011;11493;43.344;26.226;2023-03-17T16:21:25;37.20;;;23.92;;
22652;SDS011;11493;43.344;26.226;2023-03-17T16:23:54;39.72;;;25.33;;
22652;SDS011;11493;43.344;26.226;2023-03-17T16:26:22;47.90;;;24.63;;
22652;SDS011;11493;43.344;26.226;2023-03-17T16:28:48;31.02;;;15.15;;
22652;SDS011;11493;43.344;26.226;2023-03-17T16:31:26;29.08;;;19.23;;
22652;SDS011;11493;43.344;26.226;2023-03-17T16:33:57;31.98;;;20.55;;